sensor_id;sensor_type;location;lat;lon;timestamp;P1;durP1;ratioP1;P2;durP2;ratioP2
75320;SDS011;63920;52.130;5.584;2022-12-07T00:03:38;7.95;;;4.10;;
75320;SDS011;63920;52.130;5.584;2022-12-07T00:06:05;7.40;;;4.65;;
75320;SDS011;63920;52.130;5.584;2022-12-07T00:08:31;6.18;;;4.72;;
75320;SDS011;63920;52.130;5.584;2022-12-07T00:11:02;7.13;;;4.47;;
75320;SDS011;63920;52.130;5.584;2022-12-07T00:13:29;7.18;;;6.05;;
75320;SDS011;63920;52.130;5.584;2022-12-07T00:15:59;5.60;;;4.57;;
75320;SDS011;63920;52.130;5.584;2022-12-07T00:18:32;6.82;;;5.18;;
75320;SDS011;63920;52.130;5.584;2022-12-07T00:20:59;6.43;;;3.92;;
75320;SDS011;63920;52.130;5.584;2022-12-07T00:23:29;6.82;;;4.45;;
75320;SDS011;63920;52.130;5.584;2022-12-07T00:25:55;8.10;;;4.25;;
75320;SDS011;63920;52.130;5.584;2022-12-07T00:28:20;10.25;;;5.22;;
75320;SDS011;63920;52.130;5.584;2022-12-07T00:30:46;9.05;;;4.38;;
75320;SDS011;63920;52.130;5.584;2022-12-07T00:33:11;8.00;;;5.38;;
75320;SDS011;63920;52.130;5.584;2022-12-07T00:35:37;7.68;;;5.13;;
75320;SDS011;63920;52.130;5.584;2022-12-07T00:38:03;5.90;;;4.22;;
75320;SDS011;63920;52.130;5.584;2022-12-07T00:40:28;7.25;;;4.38;;
75320;SDS011;63920;52.130;5.584;2022-12-07T00:42:54;6.25;;;4.45;;
75320;SDS011;63920;52.130;5.584;2022-12-07T00:45:19;8.65;;;4.70;;
75320;SDS011;63920;52.130;5.584;2022-12-07T00:47:45;8.25;;;4.80;;
75320;SDS011;63920;52.130;5.584;2022-12-07T00:50:10;9.00;;;4.82;;
75320;SDS011;63920;52.130;5.584;2022-12-07T00:52:36;5.15;;;4.65;;
75320;SDS011;63920;52.130;5.584;2022-12-07T00:55:01;6.55;;;4.65;;
75320;SDS011;63920;52.130;5.584;2022-12-07T00:57:27;4.40;;;4.05;;
75320;SDS011;63920;52.130;5.584;2022-12-07T00:59:53;7.82;;;4.97;;
75320;SDS011;63920;52.130;5.584;2022-12-07T01:02:22;7.00;;;4.65;;
75320;SDS011;63920;52.130;5.584;2022-12-07T01:04:48;10.18;;;4.57;;
75320;SDS011;63920;52.130;5.584;2022-12-07T01:07:13;7.10;;;5.57;;
75320;SDS011;63920;52.130;5.584;2022-12-07T01:09:39;7.50;;;5.00;;
75320;SDS011;63920;52.130;5.584;2022-12-07T01:12:04;6.85;;;4.53;;
75320;SDS011;63920;52.130;5.584;2022-12-07T01:14:30;5.95;;;5.35;;
75320;SDS011;63920;52.130;5.584;2022-12-07T01:16:56;7.70;;;4.90;;
75320;SDS011;63920;52.130;5.584;2022-12-07T01:19:21;8.43;;;5.20;;
75320;SDS011;63920;52.130;5.584;2022-12-07T01:21:47;7.35;;;5.53;;
75320;SDS011;63920;52.130;5.584;2022-12-07T01:24:12;7.43;;;4.85;;
75320;SDS011;63920;52.130;5.584;2022-12-07T01:26:38;7.55;;;4.90;;
75320;SDS011;63920;52.130;5.584;2022-12-07T01:29:04;8.13;;;5.30;;
75320;SDS011;63920;52.130;5.584;2022-12-07T01:31:29;4.97;;;4.47;;
75320;SDS011;63920;52.130;5.584;2022-12-07T01:33:56;8.68;;;4.93;;
75320;SDS011;63920;52.130;5.584;2022-12-07T01:38:51;6.47;;;5.05;;
75320;SDS011;63920;52.130;5.584;2022-12-07T01:41:21;6.53;;;4.40;;
75320;SDS011;63920;52.130;5.584;2022-12-07T01:46:44;11.23;;;5.00;;
75320;SDS011;63920;52.130;5.584;2022-12-07T01:49:18;7.65;;;5.07;;
75320;SDS011;63920;52.130;5.584;2022-12-07T01:51:52;11.30;;;5.82;;
75320;SDS011;63920;52.130;5.584;2022-12-07T01:54:25;7.22;;;4.70;;
75320;SDS011;63920;52.130;5.584;2022-12-07T01:56:52;11.77;;;5.10;;
75320;SDS011;63920;52.130;5.584;2022-12-07T01:59:20;5.90;;;4.93;;
75320;SDS011;63920;52.130;5.584;2022-12-07T02:01:50;7.53;;;4.95;;
75320;SDS011;63920;52.130;5.584;2022-12-07T02:04:16;10.23;;;4.72;;
75320;SDS011;63920;52.130;5.584;2022-12-07T02:06:42;11.27;;;6.03;;
75320;SDS011;63920;52.130;5.584;2022-12-07T02:09:09;12.23;;;4.78;;
75320;SDS011;63920;52.130;5.584;2022-12-07T02:11:34;8.55;;;4.60;;
75320;SDS011;63920;52.130;5.584;2022-12-07T02:14:00;8.00;;;4.00;;
75320;SDS011;63920;52.130;5.584;2022-12-07T02:27:59;6.28;;;3.55;;
75320;SDS011;63920;52.130;5.584;2022-12-07T02:30:44;10.98;;;3.47;;
75320;SDS011;63920;52.130;5.584;2022-12-07T02:33:14;10.13;;;3.97;;
75320;SDS011;63920;52.130;5.584;2022-12-07T02:35:55;8.98;;;3.33;;
75320;SDS011;63920;52.130;5.584;2022-12-07T02:43:28;6.03;;;2.97;;
75320;SDS011;63920;52.130;5.584;2022-12-07T02:46:03;7.30;;;3.30;;
75320;SDS011;63920;52.130;5.584;2022-12-07T02:51:56;6.78;;;3.10;;
75320;SDS011;63920;52.130;5.584;2022-12-07T02:54:22;9.73;;;3.55;;
75320;SDS011;63920;52.130;5.584;2022-12-07T03:07:59;11.65;;;2.92;;
75320;SDS011;63920;52.130;5.584;2022-12-07T03:13:29;7.57;;;2.33;;
75320;SDS011;63920;52.130;5.584;2022-12-07T03:16:15;6.80;;;2.90;;
75320;SDS011;63920;52.130;5.584;2022-12-07T03:18:46;7.95;;;2.80;;
75320;SDS011;63920;52.130;5.584;2022-12-07T03:21:20;5.75;;;3.03;;
75320;SDS011;63920;52.130;5.584;2022-12-07T03:23:53;6.47;;;3.20;;
75320;SDS011;63920;52.130;5.584;2022-12-07T03:26:24;7.68;;;3.33;;
75320;SDS011;63920;52.130;5.584;2022-12-07T03:28:57;4.30;;;2.20;;
75320;SDS011;63920;52.130;5.584;2022-12-07T03:31:28;6.03;;;2.78;;
75320;SDS011;63920;52.130;5.584;2022-12-07T03:33:59;6.35;;;2.70;;
75320;SDS011;63920;52.130;5.584;2022-12-07T03:39:29;9.80;;;2.60;;
75320;SDS011;63920;52.130;5.584;2022-12-07T03:42:06;5.25;;;2.92;;
75320;SDS011;63920;52.130;5.584;2022-12-07T03:44:34;6.00;;;2.90;;
75320;SDS011;63920;52.130;5.584;2022-12-07T03:49:45;5.35;;;2.38;;
75320;SDS011;63920;52.130;5.584;2022-12-07T03:52:23;10.27;;;2.60;;
75320;SDS011;63920;52.130;5.584;2022-12-07T03:57:25;9.57;;;2.63;;
75320;SDS011;63920;52.130;5.584;2022-12-07T03:59:53;5.00;;;2.40;;
75320;SDS011;63920;52.130;5.584;2022-12-07T04:02:20;9.20;;;2.63;;
75320;SDS011;63920;52.130;5.584;2022-12-07T04:04:48;6.30;;;2.50;;
75320;SDS011;63920;52.130;5.584;2022-12-07T04:07:14;5.30;;;2.10;;
75320;SDS011;63920;52.130;5.584;2022-12-07T04:09:39;3.78;;;2.60;;
75320;SDS011;63920;52.130;5.584;2022-12-07T04:12:05;4.20;;;2.30;;
75320;SDS011;63920;52.130;5.584;2022-12-07T04:14:31;4.60;;;2.58;;
75320;SDS011;63920;52.130;5.584;2022-12-07T04:16:57;4.82;;;2.53;;
75320;SDS011;63920;52.130;5.584;2022-12-07T04:19:30;2.90;;;1.80;;
75320;SDS011;63920;52.130;5.584;2022-12-07T04:21:58;9.88;;;2.45;;
75320;SDS011;63920;52.130;5.584;2022-12-07T04:24:25;4.55;;;2.70;;
75320;SDS011;63920;52.130;5.584;2022-12-07T04:26:51;4.32;;;2.30;;
75320;SDS011;63920;52.130;5.584;2022-12-07T04:29:17;5.05;;;2.00;;
75320;SDS011;63920;52.130;5.584;2022-12-07T04:31:43;10.10;;;2.67;;
75320;SDS011;63920;52.130;5.584;2022-12-07T04:34:09;5.47;;;2.50;;
75320;SDS011;63920;52.130;5.584;2022-12-07T04:36:35;9.15;;;2.20;;
75320;SDS011;63920;52.130;5.584;2022-12-07T04:39:01;4.13;;;2.20;;
75320;SDS011;63920;52.130;5.584;2022-12-07T04:41:28;7.50;;;2.85;;
75320;SDS011;63920;52.130;5.584;2022-12-07T04:43:54;7.00;;;2.75;;
75320;SDS011;63920;52.130;5.584;2022-12-07T04:46:24;5.35;;;2.10;;
75320;SDS011;63920;52.130;5.584;2022-12-07T04:48:51;5.85;;;2.80;;
75320;SDS011;63920;52.130;5.584;2022-12-07T04:51:25;6.95;;;2.92;;
75320;SDS011;63920;52.130;5.584;2022-12-07T04:53:52;8.45;;;2.40;;
75320;SDS011;63920;52.130;5.584;2022-12-07T04:56:18;5.40;;;2.60;;
75320;SDS011;63920;52.130;5.584;2022-12-07T04:58:44;6.53;;;2.78;;
75320;SDS011;63920;52.130;5.584;2022-12-07T05:01:11;4.93;;;2.25;;
75320;SDS011;63920;52.130;5.584;2022-12-07T05:03:37;9.52;;;2.40;;
75320;SDS011;63920;52.130;5.584;2022-12-07T05:06:04;4.38;;;2.80;;
75320;SDS011;63920;52.130;5.584;2022-12-07T05:08:31;6.18;;;2.80;;
75320;SDS011;63920;52.130;5.584;2022-12-07T05:10:58;7.25;;;2.17;;
75320;SDS011;63920;52.130;5.584;2022-12-07T05:13:24;8.35;;;2.58;;
75320;SDS011;63920;52.130;5.584;2022-12-07T05:15:49;5.07;;;2.13;;
75320;SDS011;63920;52.130;5.584;2022-12-07T05:18:15;12.85;;;2.80;;
75320;SDS011;63920;52.130;5.584;2022-12-07T05:20:41;5.30;;;2.83;;
75320;SDS011;63920;52.130;5.584;2022-12-07T05:23:07;6.93;;;2.72;;
75320;SDS011;63920;52.130;5.584;2022-12-07T05:25:33;8.57;;;2.95;;
75320;SDS011;63920;52.130;5.584;2022-12-07T05:27:58;4.63;;;2.72;;
75320;SDS011;63920;52.130;5.584;2022-12-07T05:30:24;7.05;;;2.60;;
75320;SDS011;63920;52.130;5.584;2022-12-07T05:32:50;8.00;;;2.33;;
75320;SDS011;63920;52.130;5.584;2022-12-07T05:35:16;5.68;;;2.10;;
75320;SDS011;63920;52.130;5.584;2022-12-07T05:37:43;6.05;;;2.42;;
75320;SDS011;63920;52.130;5.584;2022-12-07T05:40:09;6.63;;;2.28;;
75320;SDS011;63920;52.130;5.584;2022-12-07T05:42:35;7.20;;;2.30;;
75320;SDS011;63920;52.130;5.584;2022-12-07T05:45:01;5.22;;;1.83;;
75320;SDS011;63920;52.130;5.584;2022-12-07T05:47:27;5.82;;;2.28;;
75320;SDS011;63920;52.130;5.584;2022-12-07T05:49:52;6.57;;;2.30;;
75320;SDS011;63920;52.130;5.584;2022-12-07T05:52:18;4.18;;;2.20;;
75320;SDS011;63920;52.130;5.584;2022-12-07T05:54:43;4.10;;;1.67;;
75320;SDS011;63920;52.130;5.584;2022-12-07T05:57:09;5.68;;;2.25;;
75320;SDS011;63920;52.130;5.584;2022-12-07T05:59:35;4.90;;;2.28;;
75320;SDS011;63920;52.130;5.584;2022-12-07T06:02:05;4.75;;;1.75;;
75320;SDS011;63920;52.130;5.584;2022-12-07T06:04:34;3.95;;;1.83;;
75320;SDS011;63920;52.130;5.584;2022-12-07T06:07:01;5.05;;;1.95;;
75320;SDS011;63920;52.130;5.584;2022-12-07T06:09:28;6.80;;;1.70;;
75320;SDS011;63920;52.130;5.584;2022-12-07T06:11:54;7.07;;;2.00;;
75320;SDS011;63920;52.130;5.584;2022-12-07T06:14:39;4.10;;;2.20;;
75320;SDS011;63920;52.130;5.584;2022-12-07T06:17:05;4.65;;;1.60;;
75320;SDS011;63920;52.130;5.584;2022-12-07T06:19:31;5.05;;;2.10;;
75320;SDS011;63920;52.130;5.584;2022-12-07T06:21:57;6.15;;;1.83;;
75320;SDS011;63920;52.130;5.584;2022-12-07T06:24:24;7.18;;;1.98;;
75320;SDS011;63920;52.130;5.584;2022-12-07T06:26:49;3.45;;;1.75;;
75320;SDS011;63920;52.130;5.584;2022-12-07T06:29:15;8.45;;;1.75;;
75320;SDS011;63920;52.130;5.584;2022-12-07T06:31:42;3.78;;;2.25;;
75320;SDS011;63920;52.130;5.584;2022-12-07T06:34:11;4.78;;;2.55;;
75320;SDS011;63920;52.130;5.584;2022-12-07T06:36:38;5.15;;;1.90;;
75320;SDS011;63920;52.130;5.584;2022-12-07T06:39:05;5.43;;;2.15;;
75320;SDS011;63920;52.130;5.584;2022-12-07T06:41:32;4.75;;;2.20;;
75320;SDS011;63920;52.130;5.584;2022-12-07T06:43:58;12.45;;;2.42;;
75320;SDS011;63920;52.130;5.584;2022-12-07T06:46:23;7.80;;;2.28;;
75320;SDS011;63920;52.130;5.584;2022-12-07T06:48:49;6.30;;;1.95;;
75320;SDS011;63920;52.130;5.584;2022-12-07T06:51:16;5.25;;;2.22;;
75320;SDS011;63920;52.130;5.584;2022-12-07T06:53:41;9.07;;;2.03;;
75320;SDS011;63920;52.130;5.584;2022-12-07T06:56:07;6.78;;;1.83;;
75320;SDS011;63920;52.130;5.584;2022-12-07T06:58:32;7.47;;;2.20;;
75320;SDS011;63920;52.130;5.584;2022-12-07T07:00:58;7.97;;;2.40;;
75320;SDS011;63920;52.130;5.584;2022-12-07T07:03:24;6.22;;;1.70;;
75320;SDS011;63920;52.130;5.584;2022-12-07T07:05:49;5.30;;;2.10;;
75320;SDS011;63920;52.130;5.584;2022-12-07T07:08:15;8.05;;;1.95;;
75320;SDS011;63920;52.130;5.584;2022-12-07T07:10:40;13.70;;;2.03;;
75320;SDS011;63920;52.130;5.584;2022-12-07T07:13:07;13.57;;;2.22;;
75320;SDS011;63920;52.130;5.584;2022-12-07T07:15:33;21.70;;;14.90;;
75320;SDS011;63920;52.130;5.584;2022-12-07T07:17:59;20.75;;;13.48;;
75320;SDS011;63920;52.130;5.584;2022-12-07T07:20:24;11.65;;;6.40;;
75320;SDS011;63920;52.130;5.584;2022-12-07T07:22:51;7.63;;;2.72;;
75320;SDS011;63920;52.130;5.584;2022-12-07T07:25:19;6.60;;;2.30;;
75320;SDS011;63920;52.130;5.584;2022-12-07T07:27:44;3.88;;;1.92;;
75320;SDS011;63920;52.130;5.584;2022-12-07T07:30:10;6.38;;;2.28;;
75320;SDS011;63920;52.130;5.584;2022-12-07T07:32:36;9.13;;;2.30;;
75320;SDS011;63920;52.130;5.584;2022-12-07T07:35:02;6.97;;;2.40;;
75320;SDS011;63920;52.130;5.584;2022-12-07T07:37:27;3.95;;;1.80;;
75320;SDS011;63920;52.130;5.584;2022-12-07T07:39:53;8.85;;;2.55;;
75320;SDS011;63920;52.130;5.584;2022-12-07T07:42:19;6.38;;;2.33;;
75320;SDS011;63920;52.130;5.584;2022-12-07T07:44:44;6.00;;;3.00;;
75320;SDS011;63920;52.130;5.584;2022-12-07T07:47:10;10.40;;;2.67;;
75320;SDS011;63920;52.130;5.584;2022-12-07T07:49:35;5.22;;;2.65;;
75320;SDS011;63920;52.130;5.584;2022-12-07T07:52:01;5.75;;;2.42;;
75320;SDS011;63920;52.130;5.584;2022-12-07T07:54:27;6.82;;;2.90;;
75320;SDS011;63920;52.130;5.584;2022-12-07T07:56:52;3.88;;;2.15;;
75320;SDS011;63920;52.130;5.584;2022-12-07T07:59:18;4.15;;;2.35;;
75320;SDS011;63920;52.130;5.584;2022-12-07T08:01:44;8.63;;;2.83;;
75320;SDS011;63920;52.130;5.584;2022-12-07T08:04:09;9.20;;;3.20;;
75320;SDS011;63920;52.130;5.584;2022-12-07T08:06:35;8.50;;;3.55;;
75320;SDS011;63920;52.130;5.584;2022-12-07T08:09:00;6.50;;;2.55;;
75320;SDS011;63920;52.130;5.584;2022-12-07T08:11:26;8.65;;;2.67;;
75320;SDS011;63920;52.130;5.584;2022-12-07T08:13:52;7.25;;;2.80;;
75320;SDS011;63920;52.130;5.584;2022-12-07T08:16:18;6.38;;;2.60;;
75320;SDS011;63920;52.130;5.584;2022-12-07T08:18:43;10.25;;;3.00;;
75320;SDS011;63920;52.130;5.584;2022-12-07T08:21:11;12.23;;;2.70;;
75320;SDS011;63920;52.130;5.584;2022-12-07T08:23:38;8.45;;;3.55;;
75320;SDS011;63920;52.130;5.584;2022-12-07T08:26:05;7.78;;;3.33;;
75320;SDS011;63920;52.130;5.584;2022-12-07T08:28:32;7.18;;;4.25;;
75320;SDS011;63920;52.130;5.584;2022-12-07T08:30:59;11.65;;;3.30;;
75320;SDS011;63920;52.130;5.584;2022-12-07T08:33:25;16.17;;;9.60;;
75320;SDS011;63920;52.130;5.584;2022-12-07T08:35:51;12.32;;;8.70;;
75320;SDS011;63920;52.130;5.584;2022-12-07T08:38:16;13.48;;;4.95;;
75320;SDS011;63920;52.130;5.584;2022-12-07T08:40:42;9.40;;;3.80;;
75320;SDS011;63920;52.130;5.584;2022-12-07T08:43:08;12.02;;;5.00;;
75320;SDS011;63920;52.130;5.584;2022-12-07T08:45:33;9.90;;;5.18;;
75320;SDS011;63920;52.130;5.584;2022-12-07T08:48:10;14.13;;;7.55;;
75320;SDS011;63920;52.130;5.584;2022-12-07T08:50:38;8.90;;;4.10;;
75320;SDS011;63920;52.130;5.584;2022-12-07T08:53:04;9.30;;;3.60;;
75320;SDS011;63920;52.130;5.584;2022-12-07T08:55:31;7.05;;;3.10;;
75320;SDS011;63920;52.130;5.584;2022-12-07T08:57:58;30.33;;;13.52;;
75320;SDS011;63920;52.130;5.584;2022-12-07T09:00:25;37.75;;;17.10;;
75320;SDS011;63920;52.130;5.584;2022-12-07T09:02:51;34.42;;;19.27;;
75320;SDS011;63920;52.130;5.584;2022-12-07T09:05:16;18.92;;;10.60;;
75320;SDS011;63920;52.130;5.584;2022-12-07T09:07:46;15.00;;;8.73;;
75320;SDS011;63920;52.130;5.584;2022-12-07T09:10:16;12.35;;;6.78;;
75320;SDS011;63920;52.130;5.584;2022-12-07T09:12:42;10.60;;;5.72;;
75320;SDS011;63920;52.130;5.584;2022-12-07T09:15:08;7.55;;;3.60;;
75320;SDS011;63920;52.130;5.584;2022-12-07T09:17:34;11.43;;;3.85;;
75320;SDS011;63920;52.130;5.584;2022-12-07T09:20:00;12.10;;;3.65;;
75320;SDS011;63920;52.130;5.584;2022-12-07T09:22:29;8.05;;;3.03;;
75320;SDS011;63920;52.130;5.584;2022-12-07T09:24:58;9.70;;;3.70;;
75320;SDS011;63920;52.130;5.584;2022-12-07T09:27:24;7.07;;;3.58;;
75320;SDS011;63920;52.130;5.584;2022-12-07T09:29:51;6.45;;;3.50;;
75320;SDS011;63920;52.130;5.584;2022-12-07T09:32:16;11.70;;;4.75;;
75320;SDS011;63920;52.130;5.584;2022-12-07T09:34:42;10.93;;;5.82;;
75320;SDS011;63920;52.130;5.584;2022-12-07T09:37:08;15.77;;;11.13;;
75320;SDS011;63920;52.130;5.584;2022-12-07T09:39:33;10.25;;;4.65;;
75320;SDS011;63920;52.130;5.584;2022-12-07T09:41:59;10.15;;;4.75;;
75320;SDS011;63920;52.130;5.584;2022-12-07T09:44:28;9.18;;;3.67;;
75320;SDS011;63920;52.130;5.584;2022-12-07T09:46:54;7.35;;;3.53;;
75320;SDS011;63920;52.130;5.584;2022-12-07T09:49:22;11.27;;;3.72;;
75320;SDS011;63920;52.130;5.584;2022-12-07T09:54:35;9.15;;;3.72;;
75320;SDS011;63920;52.130;5.584;2022-12-07T09:57:06;13.80;;;3.38;;
75320;SDS011;63920;52.130;5.584;2022-12-07T09:59:33;4.85;;;2.65;;
75320;SDS011;63920;52.130;5.584;2022-12-07T10:02:04;9.55;;;2.97;;
75320;SDS011;63920;52.130;5.584;2022-12-07T10:04:50;4.57;;;2.95;;
75320;SDS011;63920;52.130;5.584;2022-12-07T10:07:16;6.60;;;2.95;;
75320;SDS011;63920;52.130;5.584;2022-12-07T10:09:41;6.60;;;2.85;;
75320;SDS011;63920;52.130;5.584;2022-12-07T10:12:09;4.53;;;2.92;;
75320;SDS011;63920;52.130;5.584;2022-12-07T10:14:37;7.63;;;3.20;;
75320;SDS011;63920;52.130;5.584;2022-12-07T10:17:25;8.20;;;2.28;;
75320;SDS011;63920;52.130;5.584;2022-12-07T10:25:21;5.05;;;2.80;;
75320;SDS011;63920;52.130;5.584;2022-12-07T10:28:02;24.13;;;10.98;;
75320;SDS011;63920;52.130;5.584;2022-12-07T10:30:28;13.70;;;5.47;;
75320;SDS011;63920;52.130;5.584;2022-12-07T10:32:55;9.38;;;4.95;;
75320;SDS011;63920;52.130;5.584;2022-12-07T10:35:22;9.07;;;4.60;;
75320;SDS011;63920;52.130;5.584;2022-12-07T10:37:51;10.30;;;6.82;;
75320;SDS011;63920;52.130;5.584;2022-12-07T10:40:31;8.55;;;5.22;;
75320;SDS011;63920;52.130;5.584;2022-12-07T10:51:31;6.57;;;3.10;;
75320;SDS011;63920;52.130;5.584;2022-12-07T10:54:10;5.20;;;2.60;;
75320;SDS011;63920;52.130;5.584;2022-12-07T11:02:19;4.20;;;1.63;;
75320;SDS011;63920;52.130;5.584;2022-12-07T11:10:50;7.90;;;1.80;;
75320;SDS011;63920;52.130;5.584;2022-12-07T11:16:24;9.23;;;1.85;;
75320;SDS011;63920;52.130;5.584;2022-12-07T11:22:08;9.38;;;1.90;;
75320;SDS011;63920;52.130;5.584;2022-12-07T11:24:55;3.85;;;1.48;;
75320;SDS011;63920;52.130;5.584;2022-12-07T11:30:34;6.88;;;1.85;;
75320;SDS011;63920;52.130;5.584;2022-12-07T11:38:13;5.03;;;2.08;;
75320;SDS011;63920;52.130;5.584;2022-12-07T11:40:43;5.00;;;2.35;;
75320;SDS011;63920;52.130;5.584;2022-12-07T11:45:51;5.97;;;2.35;;
75320;SDS011;63920;52.130;5.584;2022-12-07T11:48:35;5.03;;;2.20;;
75320;SDS011;63920;52.130;5.584;2022-12-07T11:51:07;8.05;;;2.40;;
75320;SDS011;63920;52.130;5.584;2022-12-07T11:53:40;8.35;;;2.22;;
75320;SDS011;63920;52.130;5.584;2022-12-07T11:56:14;5.47;;;1.73;;
75320;SDS011;63920;52.130;5.584;2022-12-07T12:04:02;5.53;;;2.00;;
75320;SDS011;63920;52.130;5.584;2022-12-07T12:06:33;9.07;;;1.80;;
75320;SDS011;63920;52.130;5.584;2022-12-07T12:09:09;8.82;;;2.60;;
75320;SDS011;63920;52.130;5.584;2022-12-07T12:17:44;11.88;;;1.77;;
75320;SDS011;63920;52.130;5.584;2022-12-07T12:25:39;7.60;;;1.80;;
75320;SDS011;63920;52.130;5.584;2022-12-07T12:28:24;8.75;;;1.80;;
75320;SDS011;63920;52.130;5.584;2022-12-07T12:32:06;8.32;;;2.05;;
75320;SDS011;63920;52.130;5.584;2022-12-07T12:34:02;11.35;;;2.03;;
75320;SDS011;63920;52.130;5.584;2022-12-07T12:36:48;11.30;;;4.10;;
75320;SDS011;63920;52.130;5.584;2022-12-07T12:39:15;9.75;;;2.90;;
75320;SDS011;63920;52.130;5.584;2022-12-07T12:51:55;3.75;;;1.40;;
75320;SDS011;63920;52.130;5.584;2022-12-07T12:54:28;6.50;;;1.75;;
75320;SDS011;63920;52.130;5.584;2022-12-07T13:16:35;7.50;;;1.80;;
75320;SDS011;63920;52.130;5.584;2022-12-07T13:26:13;3.45;;;1.98;;
75320;SDS011;63920;52.130;5.584;2022-12-07T13:31:51;4.68;;;3.10;;
75320;SDS011;63920;52.130;5.584;2022-12-07T13:34:38;5.65;;;3.28;;
75320;SDS011;63920;52.130;5.584;2022-12-07T13:39:47;7.78;;;2.38;;
75320;SDS011;63920;52.130;5.584;2022-12-07T13:42:27;5.20;;;2.08;;
75320;SDS011;63920;52.130;5.584;2022-12-07T13:44:54;5.10;;;2.25;;
75320;SDS011;63920;52.130;5.584;2022-12-07T13:52:56;2.85;;;1.58;;
75320;SDS011;63920;52.130;5.584;2022-12-07T13:55:23;3.45;;;2.10;;
75320;SDS011;63920;52.130;5.584;2022-12-07T13:57:49;2.72;;;1.73;;
75320;SDS011;63920;52.130;5.584;2022-12-07T14:00:20;3.08;;;1.52;;
75320;SDS011;63920;52.130;5.584;2022-12-07T14:03:05;5.88;;;2.28;;
75320;SDS011;63920;52.130;5.584;2022-12-07T14:06:02;8.10;;;2.35;;
75320;SDS011;63920;52.130;5.584;2022-12-07T14:08:31;7.00;;;5.93;;
75320;SDS011;63920;52.130;5.584;2022-12-07T14:10:57;4.65;;;2.63;;
75320;SDS011;63920;52.130;5.584;2022-12-07T14:13:27;3.95;;;1.40;;
75320;SDS011;63920;52.130;5.584;2022-12-07T14:15:54;3.72;;;1.73;;
75320;SDS011;63920;52.130;5.584;2022-12-07T14:18:27;9.82;;;3.10;;
75320;SDS011;63920;52.130;5.584;2022-12-07T14:21:15;6.43;;;2.38;;
75320;SDS011;63920;52.130;5.584;2022-12-07T14:24:01;5.40;;;2.67;;
75320;SDS011;63920;52.130;5.584;2022-12-07T14:26:32;3.78;;;2.63;;
75320;SDS011;63920;52.130;5.584;2022-12-07T14:31:45;6.78;;;3.65;;
75320;SDS011;63920;52.130;5.584;2022-12-07T14:34:13;8.82;;;2.08;;
75320;SDS011;63920;52.130;5.584;2022-12-07T14:36:39;4.65;;;2.90;;
75320;SDS011;63920;52.130;5.584;2022-12-07T14:39:05;3.65;;;2.30;;
75320;SDS011;63920;52.130;5.584;2022-12-07T14:41:30;4.90;;;2.10;;
75320;SDS011;63920;52.130;5.584;2022-12-07T14:44:15;9.15;;;7.10;;
75320;SDS011;63920;52.130;5.584;2022-12-07T14:46:40;8.05;;;4.40;;
75320;SDS011;63920;52.130;5.584;2022-12-07T14:49:06;18.60;;;12.63;;
75320;SDS011;63920;52.130;5.584;2022-12-07T14:51:31;5.00;;;4.00;;
75320;SDS011;63920;52.130;5.584;2022-12-07T14:53:59;11.23;;;7.13;;
75320;SDS011;63920;52.130;5.584;2022-12-07T14:56:25;10.18;;;6.38;;
75320;SDS011;63920;52.130;5.584;2022-12-07T14:58:50;7.75;;;5.35;;
75320;SDS011;63920;52.130;5.584;2022-12-07T15:01:16;7.93;;;4.93;;
75320;SDS011;63920;52.130;5.584;2022-12-07T15:03:42;6.97;;;4.15;;
75320;SDS011;63920;52.130;5.584;2022-12-07T15:06:10;14.82;;;11.23;;
75320;SDS011;63920;52.130;5.584;2022-12-07T15:08:40;35.63;;;24.95;;
75320;SDS011;63920;52.130;5.584;2022-12-07T15:11:05;36.28;;;23.90;;
75320;SDS011;63920;52.130;5.584;2022-12-07T15:13:31;20.58;;;13.63;;
75320;SDS011;63920;52.130;5.584;2022-12-07T15:16:16;15.35;;;10.50;;
75320;SDS011;63920;52.130;5.584;2022-12-07T15:18:45;13.57;;;9.23;;
75320;SDS011;63920;52.130;5.584;2022-12-07T15:21:14;7.88;;;6.70;;
75320;SDS011;63920;52.130;5.584;2022-12-07T15:23:41;14.27;;;6.82;;
75320;SDS011;63920;52.130;5.584;2022-12-07T15:26:06;9.48;;;8.20;;
75320;SDS011;63920;52.130;5.584;2022-12-07T15:28:32;7.95;;;4.47;;
75320;SDS011;63920;52.130;5.584;2022-12-07T15:30:58;7.18;;;3.90;;
75320;SDS011;63920;52.130;5.584;2022-12-07T15:33:24;7.05;;;3.17;;
75320;SDS011;63920;52.130;5.584;2022-12-07T15:35:50;7.07;;;3.50;;
75320;SDS011;63920;52.130;5.584;2022-12-07T15:38:15;6.10;;;3.22;;
75320;SDS011;63920;52.130;5.584;2022-12-07T15:40:41;6.07;;;3.45;;
75320;SDS011;63920;52.130;5.584;2022-12-07T15:43:08;10.35;;;5.60;;
75320;SDS011;63920;52.130;5.584;2022-12-07T15:45:54;8.23;;;4.30;;
75320;SDS011;63920;52.130;5.584;2022-12-07T15:48:20;11.88;;;5.40;;
75320;SDS011;63920;52.130;5.584;2022-12-07T15:50:45;6.15;;;5.40;;
75320;SDS011;63920;52.130;5.584;2022-12-07T15:53:11;14.50;;;6.90;;
75320;SDS011;63920;52.130;5.584;2022-12-07T15:55:40;12.18;;;8.82;;
75320;SDS011;63920;52.130;5.584;2022-12-07T15:58:05;7.63;;;4.47;;
75320;SDS011;63920;52.130;5.584;2022-12-07T16:00:31;12.02;;;7.60;;
75320;SDS011;63920;52.130;5.584;2022-12-07T16:02:57;16.50;;;11.68;;
75320;SDS011;63920;52.130;5.584;2022-12-07T16:05:23;6.45;;;4.70;;
75320;SDS011;63920;52.130;5.584;2022-12-07T16:07:49;4.75;;;2.63;;
75320;SDS011;63920;52.130;5.584;2022-12-07T16:10:14;10.45;;;4.80;;
75320;SDS011;63920;52.130;5.584;2022-12-07T16:12:40;13.80;;;10.55;;
75320;SDS011;63920;52.130;5.584;2022-12-07T16:15:06;7.07;;;5.35;;
75320;SDS011;63920;52.130;5.584;2022-12-07T16:17:32;12.48;;;6.80;;
75320;SDS011;63920;52.130;5.584;2022-12-07T16:19:57;18.10;;;11.77;;
75320;SDS011;63920;52.130;5.584;2022-12-07T16:22:23;11.77;;;9.50;;
75320;SDS011;63920;52.130;5.584;2022-12-07T16:24:49;5.60;;;4.95;;
75320;SDS011;63920;52.130;5.584;2022-12-07T16:27:14;5.82;;;4.20;;
75320;SDS011;63920;52.130;5.584;2022-12-07T16:29:41;7.20;;;3.10;;
75320;SDS011;63920;52.130;5.584;2022-12-07T16:32:06;5.90;;;2.95;;
75320;SDS011;63920;52.130;5.584;2022-12-07T16:34:32;6.93;;;2.53;;
75320;SDS011;63920;52.130;5.584;2022-12-07T16:36:58;6.03;;;2.58;;
75320;SDS011;63920;52.130;5.584;2022-12-07T16:39:23;7.78;;;2.80;;
75320;SDS011;63920;52.130;5.584;2022-12-07T16:41:49;6.88;;;3.10;;
75320;SDS011;63920;52.130;5.584;2022-12-07T16:44:15;5.70;;;3.40;;
75320;SDS011;63920;52.130;5.584;2022-12-07T16:46:41;7.63;;;3.25;;
75320;SDS011;63920;52.130;5.584;2022-12-07T16:49:10;4.35;;;3.25;;
75320;SDS011;63920;52.130;5.584;2022-12-07T16:51:40;7.70;;;4.30;;
75320;SDS011;63920;52.130;5.584;2022-12-07T16:54:09;8.57;;;4.13;;
75320;SDS011;63920;52.130;5.584;2022-12-07T16:56:36;5.65;;;3.33;;
75320;SDS011;63920;52.130;5.584;2022-12-07T16:59:02;11.43;;;5.97;;
75320;SDS011;63920;52.130;5.584;2022-12-07T17:01:28;7.40;;;5.90;;
75320;SDS011;63920;52.130;5.584;2022-12-07T17:03:54;9.93;;;6.20;;
75320;SDS011;63920;52.130;5.584;2022-12-07T17:06:22;7.93;;;5.00;;
75320;SDS011;63920;52.130;5.584;2022-12-07T17:08:49;5.60;;;3.80;;
75320;SDS011;63920;52.130;5.584;2022-12-07T17:11:22;8.18;;;3.85;;
75320;SDS011;63920;52.130;5.584;2022-12-07T17:13:53;6.15;;;3.28;;
75320;SDS011;63920;52.130;5.584;2022-12-07T17:16:37;9.80;;;3.80;;
75320;SDS011;63920;52.130;5.584;2022-12-07T17:19:04;5.55;;;3.40;;
75320;SDS011;63920;52.130;5.584;2022-12-07T17:21:31;6.70;;;3.15;;
75320;SDS011;63920;52.130;5.584;2022-12-07T17:23:58;7.80;;;3.40;;
75320;SDS011;63920;52.130;5.584;2022-12-07T17:26:28;6.70;;;4.63;;
75320;SDS011;63920;52.130;5.584;2022-12-07T17:28:54;16.00;;;5.97;;
75320;SDS011;63920;52.130;5.584;2022-12-07T17:31:21;14.90;;;9.75;;
75320;SDS011;63920;52.130;5.584;2022-12-07T17:33:47;19.08;;;10.50;;